sensor_id;sensor_type;location;lat;lon;timestamp;P1;durP1;ratioP1;P2;durP2;ratioP2
36797;SDS011;22748;8.426;99.512;2022-07-10T00:01:26;47.38;;;27.35;;
36797;SDS011;22748;8.426;99.512;2022-07-10T00:03:56;44.60;;;20.58;;
36797;SDS011;22748;8.426;99.512;2022-07-10T00:06:27;37.30;;;18.92;;
36797;SDS011;22748;8.426;99.512;2022-07-10T00:08:57;22.13;;;13.13;;
36797;SDS011;22748;8.426;99.512;2022-07-10T00:11:27;27.20;;;13.68;;
36797;SDS011;22748;8.426;99.512;2022-07-10T00:13:58;27.52;;;11.52;;
36797;SDS011;22748;8.426;99.512;2022-07-10T00:19:02;18.33;;;10.63;;
36797;SDS011;22748;8.426;99.512;2022-07-10T00:21:32;23.88;;;11.60;;
36797;SDS011;22748;8.426;99.512;2022-07-10T00:24:03;29.73;;;16.95;;
36797;SDS011;22748;8.426;99.512;2022-07-10T00:29:01;23.30;;;9.43;;
36797;SDS011;22748;8.426;99.512;2022-07-10T00:31:34;25.75;;;9.57;;
36797;SDS011;22748;8.426;99.512;2022-07-10T00:34:06;24.73;;;8.27;;
36797;SDS011;22748;8.426;99.512;2022-07-10T00:36:37;18.90;;;8.95;;
36797;SDS011;22748;8.426;99.512;2022-07-10T00:39:09;18.95;;;9.45;;
36797;SDS011;22748;8.426;99.512;2022-07-10T00:41:39;14.20;;;7.53;;
36797;SDS011;22748;8.426;99.512;2022-07-10T00:44:10;22.35;;;8.55;;
36797;SDS011;22748;8.426;99.512;2022-07-10T00:46:46;18.25;;;8.65;;
36797;SDS011;22748;8.426;99.512;2022-07-10T00:49:17;21.88;;;8.65;;
36797;SDS011;22748;8.426;99.512;2022-07-10T00:51:48;18.73;;;8.25;;
36797;SDS011;22748;8.426;99.512;2022-07-10T00:54:18;19.88;;;8.57;;
36797;SDS011;22748;8.426;99.512;2022-07-10T00:56:50;19.70;;;7.93;;
36797;SDS011;22748;8.426;99.512;2022-07-10T00:59:20;18.27;;;7.28;;
36797;SDS011;22748;8.426;99.512;2022-07-10T01:01:54;16.45;;;7.45;;
36797;SDS011;22748;8.426;99.512;2022-07-10T01:04:25;12.77;;;6.93;;
36797;SDS011;22748;8.426;99.512;2022-07-10T01:06:56;16.77;;;7.63;;
36797;SDS011;22748;8.426;99.512;2022-07-10T01:09:27;18.98;;;7.15;;
36797;SDS011;22748;8.426;99.512;2022-07-10T01:11:59;19.23;;;7.13;;
36797;SDS011;22748;8.426;99.512;2022-07-10T01:14:30;18.95;;;6.80;;
36797;SDS011;22748;8.426;99.512;2022-07-10T01:17:04;22.00;;;7.78;;
36797;SDS011;22748;8.426;99.512;2022-07-10T01:19:34;16.17;;;8.27;;
36797;SDS011;22748;8.426;99.512;2022-07-10T01:22:07;17.98;;;8.85;;
36797;SDS011;22748;8.426;99.512;2022-07-10T01:24:38;20.90;;;7.13;;
36797;SDS011;22748;8.426;99.512;2022-07-10T01:27:10;17.98;;;6.50;;
36797;SDS011;22748;8.426;99.512;2022-07-10T01:29:41;22.67;;;7.13;;
36797;SDS011;22748;8.426;99.512;2022-07-10T01:32:13;20.65;;;6.30;;
36797;SDS011;22748;8.426;99.512;2022-07-10T01:34:45;15.18;;;5.82;;
36797;SDS011;22748;8.426;99.512;2022-07-10T01:37:16;28.10;;;6.40;;
36797;SDS011;22748;8.426;99.512;2022-07-10T01:39:47;21.38;;;7.47;;
36797;SDS011;22748;8.426;99.512;2022-07-10T01:42:17;31.90;;;15.80;;
36797;SDS011;22748;8.426;99.512;2022-07-10T01:44:48;23.90;;;14.80;;
36797;SDS011;22748;8.426;99.512;2022-07-10T01:47:18;19.55;;;8.90;;
36797;SDS011;22748;8.426;99.512;2022-07-10T01:49:53;19.45;;;6.70;;
36797;SDS011;22748;8.426;99.512;2022-07-10T01:52:26;23.33;;;6.95;;
36797;SDS011;22748;8.426;99.512;2022-07-10T01:54:56;26.10;;;7.10;;
36797;SDS011;22748;8.426;99.512;2022-07-10T01:57:27;24.15;;;6.90;;
36797;SDS011;22748;8.426;99.512;2022-07-10T01:59:58;24.25;;;9.18;;
36797;SDS011;22748;8.426;99.512;2022-07-10T02:02:29;26.63;;;7.15;;
36797;SDS011;22748;8.426;99.512;2022-07-10T02:05:00;16.48;;;6.22;;
36797;SDS011;22748;8.426;99.512;2022-07-10T02:07:31;21.30;;;5.78;;
36797;SDS011;22748;8.426;99.512;2022-07-10T02:10:01;24.85;;;9.77;;
36797;SDS011;22748;8.426;99.512;2022-07-10T02:12:32;50.00;;;28.85;;
36797;SDS011;22748;8.426;99.512;2022-07-10T02:15:03;18.60;;;7.00;;
36797;SDS011;22748;8.426;99.512;2022-07-10T02:17:34;23.02;;;6.95;;
36797;SDS011;22748;8.426;99.512;2022-07-10T02:20:05;17.38;;;6.82;;
36797;SDS011;22748;8.426;99.512;2022-07-10T02:22:41;23.52;;;8.82;;
36797;SDS011;22748;8.426;99.512;2022-07-10T02:25:12;24.48;;;5.45;;
36797;SDS011;22748;8.426;99.512;2022-07-10T02:27:42;25.50;;;7.03;;
36797;SDS011;22748;8.426;99.512;2022-07-10T02:30:13;20.05;;;6.40;;
36797;SDS011;22748;8.426;99.512;2022-07-10T02:32:44;17.27;;;6.03;;
36797;SDS011;22748;8.426;99.512;2022-07-10T02:35:15;29.98;;;6.50;;
36797;SDS011;22748;8.426;99.512;2022-07-10T02:37:47;18.52;;;5.28;;
36797;SDS011;22748;8.426;99.512;2022-07-10T02:40:18;21.05;;;7.88;;
36797;SDS011;22748;8.426;99.512;2022-07-10T02:42:49;15.88;;;5.25;;
36797;SDS011;22748;8.426;99.512;2022-07-10T02:45:19;24.70;;;8.35;;
36797;SDS011;22748;8.426;99.512;2022-07-10T02:47:50;20.33;;;7.00;;
36797;SDS011;22748;8.426;99.512;2022-07-10T02:50:21;19.33;;;6.00;;
36797;SDS011;22748;8.426;99.512;2022-07-10T02:52:53;25.42;;;5.63;;
36797;SDS011;22748;8.426;99.512;2022-07-10T02:55:23;17.52;;;5.32;;
36797;SDS011;22748;8.426;99.512;2022-07-10T02:57:54;25.15;;;8.35;;
36797;SDS011;22748;8.426;99.512;2022-07-10T03:00:25;15.88;;;5.07;;
36797;SDS011;22748;8.426;99.512;2022-07-10T03:02:55;15.73;;;5.55;;
36797;SDS011;22748;8.426;99.512;2022-07-10T03:05:26;15.93;;;4.97;;
36797;SDS011;22748;8.426;99.512;2022-07-10T03:07:59;23.52;;;6.13;;
36797;SDS011;22748;8.426;99.512;2022-07-10T03:10:30;19.67;;;4.80;;
36797;SDS011;22748;8.426;99.512;2022-07-10T03:13:01;25.13;;;7.05;;
36797;SDS011;22748;8.426;99.512;2022-07-10T03:15:32;14.25;;;4.60;;
36797;SDS011;22748;8.426;99.512;2022-07-10T03:18:04;18.17;;;5.35;;
36797;SDS011;22748;8.426;99.512;2022-07-10T03:20:35;15.60;;;4.78;;
36797;SDS011;22748;8.426;99.512;2022-07-10T03:23:07;22.23;;;5.28;;
36797;SDS011;22748;8.426;99.512;2022-07-10T03:25:38;13.70;;;4.60;;
36797;SDS011;22748;8.426;99.512;2022-07-10T03:28:09;15.20;;;5.00;;
36797;SDS011;22748;8.426;99.512;2022-07-10T03:30:40;18.40;;;5.78;;
36797;SDS011;22748;8.426;99.512;2022-07-10T03:33:11;17.40;;;5.30;;
36797;SDS011;22748;8.426;99.512;2022-07-10T03:35:43;17.05;;;6.40;;
36797;SDS011;22748;8.426;99.512;2022-07-10T03:38:15;21.45;;;6.45;;
36797;SDS011;22748;8.426;99.512;2022-07-10T03:40:46;17.30;;;7.30;;
36797;SDS011;22748;8.426;99.512;2022-07-10T04:46:04;16.15;;;5.05;;
36797;SDS011;22748;8.426;99.512;2022-07-10T04:48:34;18.95;;;5.60;;
36797;SDS011;22748;8.426;99.512;2022-07-10T04:51:05;16.13;;;5.60;;
36797;SDS011;22748;8.426;99.512;2022-07-10T04:53:38;24.35;;;8.93;;
36797;SDS011;22748;8.426;99.512;2022-07-10T04:56:09;16.63;;;4.63;;
36797;SDS011;22748;8.426;99.512;2022-07-10T04:58:41;15.50;;;4.75;;
36797;SDS011;22748;8.426;99.512;2022-07-10T05:01:13;12.00;;;4.38;;
36797;SDS011;22748;8.426;99.512;2022-07-10T05:03:43;14.00;;;3.88;;
36797;SDS011;22748;8.426;99.512;2022-07-10T05:06:14;13.38;;;3.97;;
36797;SDS011;22748;8.426;99.512;2022-07-10T05:08:47;18.90;;;4.43;;
36797;SDS011;22748;8.426;99.512;2022-07-10T05:11:18;15.40;;;7.15;;
36797;SDS011;22748;8.426;99.512;2022-07-10T05:13:49;16.38;;;5.45;;
36797;SDS011;22748;8.426;99.512;2022-07-10T05:16:22;22.35;;;12.95;;
36797;SDS011;22748;8.426;99.512;2022-07-10T05:18:53;14.48;;;6.45;;
36797;SDS011;22748;8.426;99.512;2022-07-10T05:23:53;30.25;;;25.80;;
36797;SDS011;22748;8.426;99.512;2022-07-10T05:26:24;25.33;;;15.17;;
36797;SDS011;22748;8.426;99.512;2022-07-10T05:28:54;20.83;;;8.73;;
36797;SDS011;22748;8.426;99.512;2022-07-10T05:31:27;17.15;;;5.70;;
36797;SDS011;22748;8.426;99.512;2022-07-10T05:33:59;17.23;;;5.55;;
36797;SDS011;22748;8.426;99.512;2022-07-10T05:36:29;13.38;;;5.13;;
36797;SDS011;22748;8.426;99.512;2022-07-10T05:38:59;13.95;;;4.00;;
36797;SDS011;22748;8.426;99.512;2022-07-10T05:41:29;11.05;;;3.90;;
36797;SDS011;22748;8.426;99.512;2022-07-10T05:44:00;12.27;;;4.10;;
36797;SDS011;22748;8.426;99.512;2022-07-10T05:46:33;12.82;;;3.65;;
36797;SDS011;22748;8.426;99.512;2022-07-10T05:49:03;16.42;;;3.83;;
36797;SDS011;22748;8.426;99.512;2022-07-10T05:51:34;15.02;;;4.13;;
36797;SDS011;22748;8.426;99.512;2022-07-10T05:54:06;12.68;;;4.20;;
36797;SDS011;22748;8.426;99.512;2022-07-10T05:56:38;15.13;;;4.00;;
36797;SDS011;22748;8.426;99.512;2022-07-10T06:01:40;12.82;;;4.63;;
36797;SDS011;22748;8.426;99.512;2022-07-10T06:04:12;16.98;;;4.30;;
36797;SDS011;22748;8.426;99.512;2022-07-10T06:06:44;24.98;;;6.47;;
36797;SDS011;22748;8.426;99.512;2022-07-10T06:09:15;12.07;;;3.40;;
36797;SDS011;22748;8.426;99.512;2022-07-10T06:11:46;17.42;;;4.50;;
36797;SDS011;22748;8.426;99.512;2022-07-10T06:14:17;15.60;;;5.63;;
36797;SDS011;22748;8.426;99.512;2022-07-10T06:16:51;17.70;;;4.53;;
36797;SDS011;22748;8.426;99.512;2022-07-10T06:19:22;15.60;;;4.18;;
36797;SDS011;22748;8.426;99.512;2022-07-10T06:21:54;27.45;;;5.28;;
36797;SDS011;22748;8.426;99.512;2022-07-10T06:24:37;16.55;;;4.60;;
36797;SDS011;22748;8.426;99.512;2022-07-10T06:27:07;17.10;;;5.03;;
36797;SDS011;22748;8.426;99.512;2022-07-10T06:29:39;13.27;;;4.18;;
36797;SDS011;22748;8.426;99.512;2022-07-10T06:32:11;16.42;;;6.63;;
36797;SDS011;22748;8.426;99.512;2022-07-10T06:34:41;26.92;;;15.43;;
36797;SDS011;22748;8.426;99.512;2022-07-10T06:37:12;17.33;;;6.53;;
36797;SDS011;22748;8.426;99.512;2022-07-10T06:39:44;16.77;;;6.45;;
36797;SDS011;22748;8.426;99.512;2022-07-10T06:42:16;18.27;;;5.75;;
36797;SDS011;22748;8.426;99.512;2022-07-10T06:44:49;14.73;;;5.15;;
36797;SDS011;22748;8.426;99.512;2022-07-10T06:47:21;15.50;;;4.05;;
36797;SDS011;22748;8.426;99.512;2022-07-10T06:50:06;10.65;;;4.10;;
36797;SDS011;22748;8.426;99.512;2022-07-10T06:52:39;12.43;;;4.50;;
36797;SDS011;22748;8.426;99.512;2022-07-10T06:55:09;12.40;;;3.97;;
36797;SDS011;22748;8.426;99.512;2022-07-10T06:57:40;11.85;;;3.72;;
36797;SDS011;22748;8.426;99.512;2022-07-10T07:00:13;11.23;;;4.22;;
36797;SDS011;22748;8.426;99.512;2022-07-10T07:02:47;14.27;;;4.72;;
36797;SDS011;22748;8.426;99.512;2022-07-10T07:05:18;14.57;;;7.25;;
36797;SDS011;22748;8.426;99.512;2022-07-10T07:07:49;12.60;;;7.13;;
36797;SDS011;22748;8.426;99.512;2022-07-10T07:10:20;17.80;;;7.03;;
36797;SDS011;22748;8.426;99.512;2022-07-10T07:15:21;20.48;;;10.65;;
36797;SDS011;22748;8.426;99.512;2022-07-10T07:17:55;27.60;;;14.60;;
36797;SDS011;22748;8.426;99.512;2022-07-10T07:20:35;24.58;;;13.45;;
36797;SDS011;22748;8.426;99.512;2022-07-10T07:23:22;19.40;;;8.80;;
36797;SDS011;22748;8.426;99.512;2022-07-10T07:25:54;15.63;;;6.15;;
36797;SDS011;22748;8.426;99.512;2022-07-10T07:28:25;15.27;;;6.07;;
36797;SDS011;22748;8.426;99.512;2022-07-10T07:30:56;12.68;;;4.35;;
36797;SDS011;22748;8.426;99.512;2022-07-10T07:33:28;10.70;;;4.53;;
36797;SDS011;22748;8.426;99.512;2022-07-10T07:36:00;9.93;;;3.47;;
36797;SDS011;22748;8.426;99.512;2022-07-10T07:38:30;10.38;;;3.75;;
36797;SDS011;22748;8.426;99.512;2022-07-10T07:41:01;10.27;;;3.90;;
36797;SDS011;22748;8.426;99.512;2022-07-10T07:43:39;9.93;;;3.50;;
36797;SDS011;22748;8.426;99.512;2022-07-10T07:46:09;9.52;;;3.60;;
36797;SDS011;22748;8.426;99.512;2022-07-10T07:48:41;7.00;;;3.05;;
36797;SDS011;22748;8.426;99.512;2022-07-10T07:51:11;7.25;;;3.42;;
36797;SDS011;22748;8.426;99.512;2022-07-10T07:53:42;10.57;;;3.20;;
36797;SDS011;22748;8.426;99.512;2022-07-10T07:58:44;7.65;;;3.20;;
36797;SDS011;22748;8.426;99.512;2022-07-10T08:01:15;8.95;;;2.90;;
36797;SDS011;22748;8.426;99.512;2022-07-10T08:03:49;6.78;;;3.03;;
36797;SDS011;22748;8.426;99.512;2022-07-10T08:06:20;7.90;;;2.75;;
36797;SDS011;22748;8.426;99.512;2022-07-10T08:08:50;7.68;;;2.95;;
36797;SDS011;22748;8.426;99.512;2022-07-10T08:11:20;6.72;;;2.83;;
36797;SDS011;22748;8.426;99.512;2022-07-10T08:13:50;9.18;;;2.97;;
36797;SDS011;22748;8.426;99.512;2022-07-10T08:16:20;5.63;;;2.75;;
36797;SDS011;22748;8.426;99.512;2022-07-10T08:18:51;8.30;;;2.92;;
36797;SDS011;22748;8.426;99.512;2022-07-10T08:21:23;7.85;;;3.30;;
36797;SDS011;22748;8.426;99.512;2022-07-10T08:23:54;8.25;;;3.08;;
36797;SDS011;22748;8.426;99.512;2022-07-10T08:26:25;5.40;;;3.00;;
36797;SDS011;22748;8.426;99.512;2022-07-10T08:28:57;5.03;;;2.90;;
36797;SDS011;22748;8.426;99.512;2022-07-10T08:33:59;5.88;;;2.55;;
36797;SDS011;22748;8.426;99.512;2022-07-10T08:36:30;6.18;;;2.53;;
36797;SDS011;22748;8.426;99.512;2022-07-10T08:39:01;6.63;;;2.80;;
36797;SDS011;22748;8.426;99.512;2022-07-10T08:41:32;9.35;;;2.72;;
36797;SDS011;22748;8.426;99.512;2022-07-10T08:44:06;9.73;;;2.88;;
36797;SDS011;22748;8.426;99.512;2022-07-10T08:46:37;6.25;;;2.60;;
36797;SDS011;22748;8.426;99.512;2022-07-10T08:49:10;7.50;;;2.88;;
36797;SDS011;22748;8.426;99.512;2022-07-10T08:51:45;9.45;;;3.47;;
36797;SDS011;22748;8.426;99.512;2022-07-10T08:54:22;12.55;;;4.38;;
36797;SDS011;22748;8.426;99.512;2022-07-10T08:56:53;9.63;;;4.35;;
36797;SDS011;22748;8.426;99.512;2022-07-10T08:59:25;11.57;;;5.75;;
36797;SDS011;22748;8.426;99.512;2022-07-10T09:01:57;11.55;;;4.85;;
36797;SDS011;22748;8.426;99.512;2022-07-10T09:07:00;10.57;;;3.95;;
36797;SDS011;22748;8.426;99.512;2022-07-10T09:09:31;8.93;;;3.80;;
36797;SDS011;22748;8.426;99.512;2022-07-10T09:12:20;8.27;;;3.58;;
36797;SDS011;22748;8.426;99.512;2022-07-10T09:14:51;8.20;;;3.10;;
36797;SDS011;22748;8.426;99.512;2022-07-10T09:17:20;10.02;;;4.15;;
36797;SDS011;22748;8.426;99.512;2022-07-10T09:19:55;10.57;;;3.92;;
36797;SDS011;22748;8.426;99.512;2022-07-10T09:22:26;10.13;;;3.53;;
36797;SDS011;22748;8.426;99.512;2022-07-10T09:25:12;11.90;;;3.97;;
36797;SDS011;22748;8.426;99.512;2022-07-10T09:27:53;9.75;;;3.50;;
36797;SDS011;22748;8.426;99.512;2022-07-10T09:30:35;9.50;;;3.50;;
36797;SDS011;22748;8.426;99.512;2022-07-10T09:33:15;11.27;;;3.80;;
36797;SDS011;22748;8.426;99.512;2022-07-10T09:35:56;10.23;;;3.53;;
36797;SDS011;22748;8.426;99.512;2022-07-10T09:41:21;17.17;;;5.75;;
36797;SDS011;22748;8.426;99.512;2022-07-10T09:43:53;10.25;;;3.65;;
36797;SDS011;22748;8.426;99.512;2022-07-10T09:46:25;12.52;;;4.15;;
36797;SDS011;22748;8.426;99.512;2022-07-10T09:49:05;11.88;;;4.05;;
36797;SDS011;22748;8.426;99.512;2022-07-10T09:51:40;15.68;;;6.50;;
36797;SDS011;22748;8.426;99.512;2022-07-10T09:54:11;16.48;;;6.97;;
36797;SDS011;22748;8.426;99.512;2022-07-10T09:56:42;17.03;;;6.77;;
36797;SDS011;22748;8.426;99.512;2022-07-10T09:59:15;18.83;;;7.75;;
36797;SDS011;22748;8.426;99.512;2022-07-10T10:01:46;20.95;;;8.35;;
36797;SDS011;22748;8.426;99.512;2022-07-10T10:04:19;18.25;;;8.57;;
36797;SDS011;22748;8.426;99.512;2022-07-10T10:06:53;18.05;;;8.23;;
36797;SDS011;22748;8.426;99.512;2022-07-10T10:09:26;12.50;;;6.20;;
36797;SDS011;22748;8.426;99.512;2022-07-10T10:12:04;15.50;;;5.97;;
36797;SDS011;22748;8.426;99.512;2022-07-10T10:14:41;11.63;;;5.53;;
36797;SDS011;22748;8.426;99.512;2022-07-10T10:17:12;12.93;;;5.72;;
36797;SDS011;22748;8.426;99.512;2022-07-10T10:19:45;13.52;;;5.85;;
36797;SDS011;22748;8.426;99.512;2022-07-10T10:22:33;11.80;;;5.50;;
36797;SDS011;22748;8.426;99.512;2022-07-10T10:25:04;12.05;;;5.13;;
36797;SDS011;22748;8.426;99.512;2022-07-10T10:27:37;12.60;;;4.97;;
36797;SDS011;22748;8.426;99.512;2022-07-10T10:30:10;13.32;;;5.22;;
36797;SDS011;22748;8.426;99.512;2022-07-10T10:32:41;10.50;;;4.60;;
36797;SDS011;22748;8.426;99.512;2022-07-10T10:38:05;14.82;;;5.18;;
36797;SDS011;22748;8.426;99.512;2022-07-10T10:40:39;16.02;;;5.60;;
36797;SDS011;22748;8.426;99.512;2022-07-10T10:43:22;17.80;;;9.88;;
36797;SDS011;22748;8.426;99.512;2022-07-10T10:45:53;12.93;;;5.95;;
36797;SDS011;22748;8.426;99.512;2022-07-10T10:48:23;14.13;;;5.63;;
36797;SDS011;22748;8.426;99.512;2022-07-10T10:50:53;16.77;;;5.65;;
36797;SDS011;22748;8.426;99.512;2022-07-10T10:53:27;16.15;;;5.82;;
36797;SDS011;22748;8.426;99.512;2022-07-10T10:58:56;13.45;;;5.47;;
36797;SDS011;22748;8.426;99.512;2022-07-10T11:01:28;14.63;;;5.18;;
36797;SDS011;22748;8.426;99.512;2022-07-10T11:06:47;14.82;;;5.05;;
36797;SDS011;22748;8.426;99.512;2022-07-10T11:09:24;18.15;;;5.70;;
36797;SDS011;22748;8.426;99.512;2022-07-10T11:12:04;15.55;;;5.63;;
36797;SDS011;22748;8.426;99.512;2022-07-10T11:14:35;19.65;;;7.00;;
36797;SDS011;22748;8.426;99.512;2022-07-10T11:17:08;14.02;;;5.60;;
36797;SDS011;22748;8.426;99.512;2022-07-10T11:19:40;17.45;;;5.47;;
36797;SDS011;22748;8.426;99.512;2022-07-10T11:22:18;13.85;;;5.22;;
36797;SDS011;22748;8.426;99.512;2022-07-10T11:25:16;14.82;;;4.93;;
36797;SDS011;22748;8.426;99.512;2022-07-10T11:28:04;18.00;;;8.20;;
36797;SDS011;22748;8.426;99.512;2022-07-10T11:30:46;16.10;;;8.10;;
36797;SDS011;22748;8.426;99.512;2022-07-10T11:33:19;14.90;;;6.13;;
36797;SDS011;22748;8.426;99.512;2022-07-10T11:35:52;18.60;;;8.10;;
36797;SDS011;22748;8.426;99.512;2022-07-10T11:38:24;15.10;;;6.80;;
36797;SDS011;22748;8.426;99.512;2022-07-10T11:40:57;18.38;;;7.55;;
36797;SDS011;22748;8.426;99.512;2022-07-10T11:43:27;17.27;;;7.10;;
36797;SDS011;22748;8.426;99.512;2022-07-10T11:45:57;17.80;;;8.55;;
36797;SDS011;22748;8.426;99.512;2022-07-10T11:48:28;22.15;;;10.85;;
36797;SDS011;22748;8.426;99.512;2022-07-10T11:50:59;20.92;;;11.13;;
36797;SDS011;22748;8.426;99.512;2022-07-10T11:53:31;17.70;;;11.02;;
36797;SDS011;22748;8.426;99.512;2022-07-10T11:56:03;18.63;;;11.32;;
36797;SDS011;22748;8.426;99.512;2022-07-10T11:58:35;19.13;;;11.52;;
36797;SDS011;22748;8.426;99.512;2022-07-10T12:01:06;21.40;;;11.18;;
36797;SDS011;22748;8.426;99.512;2022-07-10T12:03:42;17.98;;;10.15;;
36797;SDS011;22748;8.426;99.512;2022-07-10T12:08:44;17.35;;;9.65;;
36797;SDS011;22748;8.426;99.512;2022-07-10T12:11:16;19.42;;;8.88;;
36797;SDS011;22748;8.426;99.512;2022-07-10T12:13:49;12.77;;;8.52;;
36797;SDS011;22748;8.426;99.512;2022-07-10T12:16:20;17.23;;;7.80;;
36797;SDS011;22748;8.426;99.512;2022-07-10T12:18:52;15.40;;;8.40;;
36797;SDS011;22748;8.426;99.512;2022-07-10T12:21:24;20.88;;;8.27;;
36797;SDS011;22748;8.426;99.512;2022-07-10T12:23:57;20.45;;;8.73;;
36797;SDS011;22748;8.426;99.512;2022-07-10T12:26:33;18.00;;;9.43;;
36797;SDS011;22748;8.426;99.512;2022-07-10T12:29:04;25.38;;;12.70;;
36797;SDS011;22748;8.426;99.512;2022-07-10T12:31:37;27.42;;;15.07;;
36797;SDS011;22748;8.426;99.512;2022-07-10T12:34:07;30.85;;;14.05;;
36797;SDS011;22748;8.426;99.512;2022-07-10T12:36:41;28.53;;;13.90;;
36797;SDS011;22748;8.426;99.512;2022-07-10T12:39:14;32.97;;;14.30;;
36797;SDS011;22748;8.426;99.512;2022-07-10T12:44:32;22.08;;;11.45;;
36797;SDS011;22748;8.426;99.512;2022-07-10T12:47:05;21.60;;;10.65;;
36797;SDS011;22748;8.426;99.512;2022-07-10T12:52:30;18.38;;;11.40;;
36797;SDS011;22748;8.426;99.512;2022-07-10T12:55:07;21.70;;;12.40;;
36797;SDS011;22748;8.426;99.512;2022-07-10T12:57:49;20.83;;;11.40;;
36797;SDS011;22748;8.426;99.512;2022-07-10T13:00:22;21.08;;;10.55;;
36797;SDS011;22748;8.426;99.512;2022-07-10T13:02:59;18.70;;;11.00;;
36797;SDS011;22748;8.426;99.512;2022-07-10T13:05:30;20.10;;;11.35;;
36797;SDS011;22748;8.426;99.512;2022-07-10T13:08:05;19.08;;;11.00;;
36797;SDS011;22748;8.426;99.512;2022-07-10T13:10:38;20.40;;;10.65;;
36797;SDS011;22748;8.426;99.512;2022-07-10T13:13:12;17.10;;;10.05;;
36797;SDS011;22748;8.426;99.512;2022-07-10T13:15:43;17.85;;;11.05;;
36797;SDS011;22748;8.426;99.512;2022-07-10T13:18:18;16.17;;;10.10;;
36797;SDS011;22748;8.426;99.512;2022-07-10T13:20:50;19.98;;;11.57;;
36797;SDS011;22748;8.426;99.512;2022-07-10T13:23:22;20.40;;;11.00;;
36797;SDS011;22748;8.426;99.512;2022-07-10T13:25:54;20.65;;;13.48;;
36797;SDS011;22748;8.426;99.512;2022-07-10T13:28:28;20.95;;;11.93;;
36797;SDS011;22748;8.426;99.512;2022-07-10T13:30:59;22.77;;;12.60;;
36797;SDS011;22748;8.426;99.512;2022-07-10T13:33:31;22.83;;;12.40;;
36797;SDS011;22748;8.426;99.512;2022-07-10T13:36:02;20.40;;;12.77;;
36797;SDS011;22748;8.426;99.512;2022-07-10T13:38:34;16.33;;;11.25;;
36797;SDS011;22748;8.426;99.512;2022-07-10T13:41:06;20.13;;;11.73;;
36797;SDS011;22748;8.426;99.512;2022-07-10T13:43:39;24.80;;;12.45;;
36797;SDS011;22748;8.426;99.512;2022-07-10T13:46:10;21.95;;;12.80;;
36797;SDS011;22748;8.426;99.512;2022-07-10T13:48:41;23.27;;;11.75;;
36797;SDS011;22748;8.426;99.512;2022-07-10T13:51:13;21.02;;;11.55;;
36797;SDS011;22748;8.426;99.512;2022-07-10T13:53:43;24.42;;;12.15;;
36797;SDS011;22748;8.426;99.512;2022-07-10T13:56:14;18.55;;;11.45;;
36797;SDS011;22748;8.426;99.512;2022-07-10T13:58:46;20.08;;;12.07;;
36797;SDS011;22748;8.426;99.512;2022-07-10T14:01:17;22.40;;;12.75;;
36797;SDS011;22748;8.426;99.512;2022-07-10T14:03:49;22.17;;;14.63;;
36797;SDS011;22748;8.426;99.512;2022-07-10T14:08:49;28.00;;;14.55;;
36797;SDS011;22748;8.426;99.512;2022-07-10T14:13:52;22.55;;;13.13;;
36797;SDS011;22748;8.426;99.512;2022-07-10T14:16:23;25.88;;;13.35;;
36797;SDS011;22748;8.426;99.512;2022-07-10T14:18:54;24.05;;;13.35;;
36797;SDS011;22748;8.426;99.512;2022-07-10T14:21:26;18.08;;;13.15;;
36797;SDS011;22748;8.426;99.512;2022-07-10T14:23:57;24.75;;;12.80;;
36797;SDS011;22748;8.426;99.512;2022-07-10T14:29:03;19.98;;;11.65;;
36797;SDS011;22748;8.426;99.512;2022-07-10T14:31:35;21.33;;;12.63;;
36797;SDS011;22748;8.426;99.512;2022-07-10T14:34:06;18.05;;;12.05;;
36797;SDS011;22748;8.426;99.512;2022-07-10T14:36:38;22.17;;;11.70;;
36797;SDS011;22748;8.426;99.512;2022-07-10T14:39:09;20.20;;;11.25;;
36797;SDS011;22748;8.426;99.512;2022-07-10T14:41:39;19.25;;;11.30;;
36797;SDS011;22748;8.426;99.512;2022-07-10T14:44:12;19.95;;;10.82;;
36797;SDS011;22748;8.426;99.512;2022-07-10T14:46:42;19.02;;;11.35;;
36797;SDS011;22748;8.426;99.512;2022-07-10T14:49:14;19.02;;;10.80;;
36797;SDS011;22748;8.426;99.512;2022-07-10T14:54:15;20.67;;;12.88;;
36797;SDS011;22748;8.426;99.512;2022-07-10T14:56:46;21.40;;;12.48;;
36797;SDS011;22748;8.426;99.512;2022-07-10T15:01:48;21.25;;;12.13;;
36797;SDS011;22748;8.426;99.512;2022-07-10T15:04:20;19.42;;;11.50;;
36797;SDS011;22748;8.426;99.512;2022-07-10T15:06:51;21.73;;;14.68;;
36797;SDS011;22748;8.426;99.512;2022-07-10T15:09:22;24.45;;;15.15;;
36797;SDS011;22748;8.426;99.512;2022-07-10T15:11:53;26.00;;;16.35;;
36797;SDS011;22748;8.426;99.512;2022-07-10T15:14:25;24.48;;;16.77;;
36797;SDS011;22748;8.426;99.512;2022-07-10T15:16:56;24.75;;;16.73;;
36797;SDS011;22748;8.426;99.512;2022-07-10T15:19:28;26.30;;;17.05;;
36797;SDS011;22748;8.426;99.512;2022-07-10T15:24:27;24.00;;;15.93;;
36797;SDS011;22748;8.426;99.512;2022-07-10T15:26:57;24.85;;;15.35;;
36797;SDS011;22748;8.426;99.512;2022-07-10T15:29:29;24.45;;;14.95;;
36797;SDS011;22748;8.426;99.512;2022-07-10T15:32:01;23.77;;;15.05;;
36797;SDS011;22748;8.426;99.512;2022-07-10T15:34:32;23.63;;;13.68;;
36797;SDS011;22748;8.426;99.512;2022-07-10T15:37:03;22.23;;;13.18;;
36797;SDS011;22748;8.426;99.512;2022-07-10T15:39:34;26.10;;;12.82;;
36797;SDS011;22748;8.426;99.512;2022-07-10T15:42:11;21.30;;;11.93;;
36797;SDS011;22748;8.426;99.512;2022-07-10T15:44:44;22.77;;;12.30;;
36797;SDS011;22748;8.426;99.512;2022-07-10T15:47:15;20.17;;;11.95;;
36797;SDS011;22748;8.426;99.512;2022-07-10T15:49:47;17.15;;;11.63;;
36797;SDS011;22748;8.426;99.512;2022-07-10T15:52:17;20.15;;;11.05;;
36797;SDS011;22748;8.426;99.512;2022-07-10T15:54:49;19.60;;;11.45;;
36797;SDS011;22748;8.426;99.512;2022-07-10T15:57:20;19.65;;;11.15;;
36797;SDS011;22748;8.426;99.512;2022-07-10T15:59:52;19.90;;;10.98;;
36797;SDS011;22748;8.426;99.512;2022-07-10T16:02:24;17.48;;;11.30;;
36797;SDS011;22748;8.426;99.512;2022-07-10T16:04:55;18.85;;;11.20;;
36797;SDS011;22748;8.426;99.512;2022-07-10T16:09:55;19.83;;;12.38;;
36797;SDS011;22748;8.426;99.512;2022-07-10T16:12:26;17.58;;;11.82;;
36797;SDS011;22748;8.426;99.512;2022-07-10T16:14:59;17.98;;;11.38;;
36797;SDS011;22748;8.426;99.512;2022-07-10T16:17:29;14.57;;;11.02;;
36797;SDS011;22748;8.426;99.512;2022-07-10T16:20:00;20.70;;;11.63;;
36797;SDS011;22748;8.426;99.512;2022-07-10T16:22:32;18.27;;;10.95;;
36797;SDS011;22748;8.426;99.512;2022-07-10T16:25:03;17.00;;;10.57;;
36797;SDS011;22748;8.426;99.512;2022-07-10T16:27:47;17.42;;;11.15;;
36797;SDS011;22748;8.426;99.512;2022-07-10T16:32:51;17.65;;;11.30;;
36797;SDS011;22748;8.426;99.512;2022-07-10T16:35:22;23.75;;;11.10;;
36797;SDS011;22748;8.426;99.512;2022-07-10T16:37:53;21.70;;;10.75;;
36797;SDS011;22748;8.426;99.512;2022-07-10T16:40:24;17.17;;;10.38;;
36797;SDS011;22748;8.426;99.512;2022-07-10T16:42:56;13.63;;;9.93;;
36797;SDS011;22748;8.426;99.512;2022-07-10T16:45:28;16.08;;;9.70;;
36797;SDS011;22748;8.426;99.512;2022-07-10T16:47:59;17.58;;;9.38;;
36797;SDS011;22748;8.426;99.512;2022-07-10T16:50:30;14.80;;;9.10;;
36797;SDS011;22748;8.426;99.512;2022-07-10T16:53:02;19.50;;;9.10;;
36797;SDS011;22748;8.426;99.512;2022-07-10T16:58:03;15.60;;;7.95;;
36797;SDS011;22748;8.426;99.512;2022-07-10T17:00:35;14.25;;;8.32;;
36797;SDS011;22748;8.426;99.512;2022-07-10T17:03:07;14.93;;;8.32;;
36797;SDS011;22748;8.426;99.512;2022-07-10T17:05:38;12.80;;;8.23;;